createdAt,value
2022-07-25T00:01:47.154Z,16.90
2022-07-25T00:04:14.766Z,16.81
2022-07-25T00:06:42.311Z,16.76
2022-07-25T00:09:09.650Z,16.71
2022-07-25T00:11:36.966Z,16.65
2022-07-25T00:14:04.775Z,16.60
2022-07-25T00:16:32.116Z,16.56
2022-07-25T00:18:58.916Z,16.58
2022-07-25T00:21:25.548Z,16.57
2022-07-25T00:23:52.149Z,16.55
2022-07-25T00:26:18.809Z,16.53
2022-07-25T00:28:45.344Z,16.47
2022-07-25T00:31:11.957Z,16.43
2022-07-25T00:33:40.099Z,16.39
2022-07-25T00:36:08.656Z,16.35
2022-07-25T00:38:35.354Z,16.37
2022-07-25T00:41:04.271Z,16.38
2022-07-25T00:43:31.261Z,16.44
2022-07-25T00:45:59.359Z,16.47
2022-07-25T00:48:28.379Z,16.45
2022-07-25T00:50:59.663Z,16.38
2022-07-25T00:53:26.314Z,16.34
2022-07-25T00:55:53.203Z,16.31
2022-07-25T00:58:19.840Z,16.25
2022-07-25T01:00:47.776Z,16.23
2022-07-25T01:03:15.623Z,16.21
2022-07-25T01:05:42.431Z,16.14
2022-07-25T01:08:10.262Z,16.05
2022-07-25T01:10:37.987Z,16.06
2022-07-25T01:13:05.734Z,16.06
2022-07-25T01:15:32.445Z,16.09
2022-07-25T01:17:59.001Z,16.07
2022-07-25T01:20:29.225Z,16.03
2022-07-25T01:22:56.495Z,16.01
2022-07-25T01:25:24.356Z,15.94
2022-07-25T01:27:55.790Z,15.87
2022-07-25T01:30:24.574Z,15.82
2022-07-25T01:32:51.915Z,15.81
2022-07-25T01:35:18.571Z,15.77
2022-07-25T01:37:45.863Z,15.76
2022-07-25T01:40:14.437Z,15.76
2022-07-25T01:42:42.974Z,15.73
2022-07-25T01:45:12.235Z,15.74
2022-07-25T01:47:38.996Z,15.73
2022-07-25T01:50:06.848Z,15.69
2022-07-25T01:52:33.467Z,15.61
2022-07-25T01:54:59.980Z,15.56
2022-07-25T01:57:31.131Z,15.54
2022-07-25T01:59:59.280Z,15.51
2022-07-25T02:02:25.984Z,15.46
2022-07-25T02:04:52.672Z,15.42
2022-07-25T02:07:19.566Z,15.43
2022-07-25T02:09:46.165Z,15.47
2022-07-25T02:12:12.800Z,15.49
2022-07-25T02:14:39.443Z,15.49
2022-07-25T02:17:06.182Z,15.45
2022-07-25T02:19:33.232Z,15.35
2022-07-25T02:22:00.637Z,15.32
2022-07-25T02:24:27.277Z,15.26
2022-07-25T02:26:53.924Z,15.21
2022-07-25T02:29:21.996Z,15.20
2022-07-25T02:31:49.001Z,15.20
2022-07-25T02:34:15.703Z,15.24
2022-07-25T02:36:42.765Z,15.17
2022-07-25T02:39:09.402Z,15.17
2022-07-25T02:41:36.045Z,15.15
2022-07-25T02:44:02.731Z,15.07
2022-07-25T02:46:29.468Z,14.99
2022-07-25T02:48:56.168Z,14.96
2022-07-25T02:51:22.730Z,14.97
2022-07-25T02:53:57.880Z,14.99
2022-07-25T02:56:35.569Z,14.92
2022-07-25T02:59:02.081Z,14.93
2022-07-25T03:01:28.979Z,14.88
2022-07-25T03:03:55.950Z,14.84
2022-07-25T03:06:22.579Z,14.86
2022-07-25T03:08:49.130Z,14.90
2022-07-25T03:11:16.709Z,14.88
2022-07-25T03:13:43.582Z,14.81
2022-07-25T03:16:10.452Z,14.76
2022-07-25T03:18:37.332Z,14.75
2022-07-25T03:21:04.317Z,14.82
2022-07-25T03:23:31.069Z,14.85
2022-07-25T03:25:57.856Z,14.92
2022-07-25T03:28:25.115Z,14.87
2022-07-25T03:30:52.821Z,14.79
2022-07-25T03:33:19.618Z,14.79
2022-07-25T03:35:46.426Z,14.76
2022-07-25T03:38:13.085Z,14.80
2022-07-25T03:40:39.658Z,14.77
2022-07-25T03:43:06.323Z,14.73
2022-07-25T03:45:32.906Z,14.77
2022-07-25T03:47:59.473Z,14.75
2022-07-25T03:50:25.998Z,14.69
2022-07-25T03:52:52.511Z,14.80
2022-07-25T03:55:19.048Z,14.85
2022-07-25T03:57:45.590Z,14.88
2022-07-25T04:00:12.580Z,14.83
2022-07-25T04:02:39.444Z,14.83
2022-07-25T04:05:08.911Z,14.77
2022-07-25T04:07:37.233Z,14.81
2022-07-25T04:10:07.029Z,14.79
2022-07-25T04:12:33.896Z,14.76
2022-07-25T04:15:00.465Z,14.70
2022-07-25T04:17:27.018Z,14.64
2022-07-25T04:19:53.628Z,14.61
2022-07-25T04:22:20.284Z,14.63
2022-07-25T04:24:46.967Z,14.67
2022-07-25T04:27:13.824Z,14.68
2022-07-25T04:29:40.341Z,14.71
2022-07-25T04:32:07.270Z,14.73
2022-07-25T04:34:33.893Z,14.82
2022-07-25T04:37:00.422Z,14.87
2022-07-25T04:39:26.932Z,14.90
2022-07-25T04:41:53.471Z,14.90
2022-07-25T04:44:20.022Z,14.90
2022-07-25T04:46:46.534Z,14.85
2022-07-25T04:49:13.208Z,14.82
2022-07-25T04:51:39.712Z,14.82
2022-07-25T04:54:06.837Z,14.84
2022-07-25T04:56:33.633Z,14.85
2022-07-25T04:59:06.595Z,14.88
2022-07-25T05:01:33.901Z,14.94
2022-07-25T05:04:00.605Z,15.02
2022-07-25T05:06:27.164Z,15.14
2022-07-25T05:08:53.713Z,15.21
2022-07-25T05:11:20.299Z,15.32
2022-07-25T05:13:46.826Z,15.42
2022-07-25T05:16:13.447Z,15.50
2022-07-25T05:18:40.123Z,15.58
2022-07-25T05:21:11.368Z,15.63
2022-07-25T05:23:38.004Z,15.72
2022-07-25T05:26:04.635Z,15.83
2022-07-25T05:28:31.140Z,15.92
2022-07-25T05:30:57.682Z,16.04
2022-07-25T05:33:24.216Z,16.14
2022-07-25T05:35:50.736Z,16.25
2022-07-25T05:38:17.352Z,16.33
2022-07-25T05:40:45.749Z,16.41
2022-07-25T05:43:12.288Z,16.48
2022-07-25T05:45:38.789Z,16.57
2022-07-25T05:48:05.484Z,16.67
2022-07-25T05:50:32.115Z,16.78
2022-07-25T05:52:58.656Z,16.84
2022-07-25T05:55:25.217Z,16.92
2022-07-25T05:57:51.726Z,17.02
2022-07-25T06:00:18.349Z,17.14
2022-07-25T06:02:45.157Z,17.22
2022-07-25T06:05:11.741Z,17.30
2022-07-25T06:07:38.294Z,17.40
2022-07-25T06:10:05.648Z,17.50
2022-07-25T06:12:33.566Z,17.61
2022-07-25T06:15:04.000Z,17.70
2022-07-25T06:17:32.524Z,17.79
2022-07-25T06:19:59.403Z,17.91
2022-07-25T06:22:26.010Z,18.02
2022-07-25T06:24:52.525Z,18.16
2022-07-25T06:27:21.600Z,18.28
2022-07-25T06:29:49.704Z,18.42
2022-07-25T06:32:16.274Z,18.58
2022-07-25T06:34:42.964Z,18.74
2022-07-25T06:37:09.547Z,18.94
2022-07-25T06:39:36.244Z,19.17
2022-07-25T06:42:04.072Z,19.36
2022-07-25T06:44:35.066Z,19.58
2022-07-25T06:47:03.039Z,19.78
2022-07-25T06:49:29.680Z,19.99
2022-07-25T06:51:56.196Z,20.18
2022-07-25T06:54:23.001Z,20.38
2022-07-25T06:56:49.607Z,20.59
2022-07-25T06:59:16.217Z,20.81
2022-07-25T07:01:42.723Z,20.98
2022-07-25T07:04:09.570Z,21.15
2022-07-25T07:06:37.576Z,21.30
2022-07-25T07:09:04.208Z,21.47
2022-07-25T07:11:30.795Z,21.65
2022-07-25T07:13:57.338Z,21.85
2022-07-25T07:16:23.957Z,22.01
2022-07-25T07:18:50.516Z,22.20
2022-07-25T07:21:21.344Z,22.37
2022-07-25T07:23:49.259Z,22.52
2022-07-25T07:26:20.071Z,22.68
2022-07-25T07:28:46.623Z,22.82
2022-07-25T07:31:16.766Z,22.95
2022-07-25T07:33:44.144Z,23.01
2022-07-25T07:36:10.854Z,23.12
2022-07-25T07:38:37.473Z,23.25
2022-07-25T07:41:04.058Z,23.35
2022-07-25T07:43:31.796Z,23.53
2022-07-25T07:46:00.735Z,23.75
2022-07-25T07:48:32.372Z,23.94
2022-07-25T07:51:01.381Z,24.13
2022-07-25T07:53:47.339Z,24.31
2022-07-25T07:56:15.712Z,24.43
2022-07-25T07:58:42.707Z,24.53
2022-07-25T08:01:09.310Z,24.61
2022-07-25T08:03:36.081Z,24.67
2022-07-25T08:06:03.596Z,24.66
2022-07-25T08:08:31.612Z,24.66
2022-07-25T08:10:59.779Z,24.75
2022-07-25T08:13:31.720Z,24.76
2022-07-25T08:16:03.323Z,24.84
2022-07-25T08:18:32.742Z,24.87
2022-07-25T08:21:04.051Z,24.83
2022-07-25T08:23:31.881Z,24.78
2022-07-25T08:25:59.341Z,24.76
2022-07-25T08:28:25.946Z,24.77
2022-07-25T08:30:52.769Z,24.79
2022-07-25T08:33:19.477Z,24.86
2022-07-25T08:35:53.458Z,24.93
2022-07-25T08:38:23.902Z,25.01
2022-07-25T08:40:51.068Z,25.06
2022-07-25T08:43:18.960Z,25.16
2022-07-25T08:45:49.219Z,25.23
2022-07-25T08:48:26.378Z,25.32
2022-07-25T08:50:56.944Z,25.54
2022-07-25T08:53:34.075Z,25.71
2022-07-25T08:56:09.996Z,25.79
2022-07-25T08:58:40.215Z,25.92
2022-07-25T09:01:07.919Z,26.07
2022-07-25T09:03:36.134Z,26.11
2022-07-25T09:06:15.341Z,26.17
2022-07-25T09:09:00.629Z,26.31
2022-07-25T09:11:33.822Z,26.49
2022-07-25T09:14:14.861Z,26.61
2022-07-25T09:16:44.986Z,26.71
2022-07-25T09:19:23.739Z,26.66
2022-07-25T09:22:07.421Z,26.62
2022-07-25T09:24:37.119Z,26.73
2022-07-25T09:27:12.349Z,26.81
2022-07-25T09:29:42.457Z,26.89
2022-07-25T09:32:21.992Z,26.97
2022-07-25T09:34:50.946Z,27.10
2022-07-25T09:37:25.423Z,27.22
2022-07-25T09:39:52.899Z,27.27
2022-07-25T09:42:32.575Z,27.23
2022-07-25T09:45:12.839Z,27.23
2022-07-25T09:47:58.294Z,27.13
2022-07-25T09:50:28.457Z,27.16
2022-07-25T09:52:58.160Z,27.17
2022-07-25T09:55:25.076Z,27.14
2022-07-25T09:57:52.632Z,27.03
2022-07-25T10:00:24.545Z,26.96
2022-07-25T10:03:26.386Z,27.05
2022-07-25T10:06:08.453Z,27.15
2022-07-25T10:08:40.181Z,27.31
2022-07-25T10:11:22.619Z,27.42
2022-07-25T10:13:50.210Z,27.53
2022-07-25T10:16:23.993Z,27.58
2022-07-25T10:18:57.282Z,27.72
2022-07-25T10:21:28.227Z,27.82
2022-07-25T10:24:10.859Z,27.82
2022-07-25T10:26:50.891Z,27.83
2022-07-25T10:29:17.737Z,27.91
2022-07-25T10:31:51.577Z,28.03
2022-07-25T10:34:33.093Z,28.33
2022-07-25T10:37:16.018Z,28.61
2022-07-25T10:39:48.643Z,28.82
2022-07-25T10:42:21.054Z,28.93
2022-07-25T10:44:57.421Z,29.05
2022-07-25T10:47:27.547Z,29.18
2022-07-25T10:53:00.526Z,29.20
2022-07-25T10:55:29.504Z,29.17
2022-07-25T10:58:19.479Z,29.09
2022-07-25T11:00:46.124Z,29.15
2022-07-25T11:03:17.840Z,29.19
2022-07-25T11:05:47.320Z,29.09
2022-07-25T11:08:22.596Z,28.99
2022-07-25T11:10:53.253Z,28.71
2022-07-25T11:13:20.118Z,28.59
2022-07-25T11:15:47.621Z,28.44
2022-07-25T11:18:14.181Z,28.29
2022-07-25T11:20:41.040Z,28.12
2022-07-25T11:23:07.604Z,27.95
2022-07-25T11:25:34.165Z,27.83
2022-07-25T11:28:03.078Z,27.68
2022-07-25T11:30:29.758Z,27.51
2022-07-25T11:33:01.477Z,27.32
2022-07-25T11:35:34.349Z,27.08
2022-07-25T11:38:03.294Z,26.92
2022-07-25T11:40:31.419Z,26.87
2022-07-25T11:42:59.557Z,26.90
2022-07-25T11:45:33.590Z,26.78
2022-07-25T11:48:14.526Z,26.78
2022-07-25T11:50:44.603Z,26.80
2022-07-25T11:53:16.105Z,26.78
2022-07-25T11:55:43.987Z,26.72
2022-07-25T11:58:13.415Z,26.69
2022-07-25T12:00:46.530Z,26.81
2022-07-25T12:03:20.948Z,26.92
2022-07-25T12:05:49.632Z,26.88
2022-07-25T12:08:25.001Z,26.86
2022-07-25T12:10:51.845Z,26.87
2022-07-25T12:13:25.590Z,26.95
2022-07-25T12:15:52.510Z,27.15
2022-07-25T12:18:19.265Z,27.15
2022-07-25T12:20:45.830Z,27.16
2022-07-25T12:23:14.172Z,27.37
2022-07-25T12:25:44.434Z,27.56
2022-07-25T12:28:11.973Z,27.71
2022-07-25T12:30:41.106Z,27.78
2022-07-25T12:33:08.830Z,27.75
2022-07-25T12:35:37.416Z,27.68
2022-07-25T12:38:05.070Z,27.64
2022-07-25T12:40:32.407Z,27.68
2022-07-25T12:42:59.393Z,27.72
2022-07-25T12:45:26.302Z,27.71
2022-07-25T12:47:52.959Z,27.63
2022-07-25T12:50:19.620Z,27.68
2022-07-25T12:52:47.488Z,27.93
2022-07-25T12:55:19.761Z,28.15
2022-07-25T12:57:47.342Z,28.35
2022-07-25T13:00:18.342Z,28.41
2022-07-25T13:02:44.997Z,28.38
2022-07-25T13:05:11.915Z,28.33
2022-07-25T13:07:38.857Z,28.44
2022-07-25T13:10:07.083Z,28.52
2022-07-25T13:12:33.842Z,28.54
2022-07-25T13:15:00.453Z,28.51
2022-07-25T13:17:28.069Z,28.60
2022-07-25T13:19:56.452Z,28.57
2022-07-25T13:22:25.258Z,28.50
2022-07-25T13:24:52.890Z,28.51
2022-07-25T13:27:21.831Z,28.56
2022-07-25T13:29:54.120Z,28.39
2022-07-25T13:32:22.268Z,28.50
2022-07-25T13:34:48.935Z,28.70
2022-07-25T13:37:15.575Z,28.84
2022-07-25T13:39:42.345Z,28.98
2022-07-25T13:42:10.049Z,28.89
2022-07-25T13:44:36.669Z,28.90
2022-07-25T13:47:03.860Z,28.83
2022-07-25T13:49:32.027Z,28.83
2022-07-25T13:51:58.627Z,28.82
2022-07-25T13:54:25.170Z,28.69
2022-07-25T13:56:51.814Z,28.48
2022-07-25T13:59:21.414Z,28.31
2022-07-25T14:01:49.527Z,28.20
2022-07-25T14:04:17.040Z,28.15
2022-07-25T14:06:43.946Z,28.09
2022-07-25T14:09:10.897Z,28.21
2022-07-25T14:11:37.671Z,28.27
2022-07-25T14:14:04.201Z,28.35
2022-07-25T14:16:31.008Z,28.38
2022-07-25T14:18:57.643Z,28.40
2022-07-25T14:21:24.210Z,28.28
2022-07-25T14:23:52.415Z,28.10
2022-07-25T14:26:19.249Z,28.12
2022-07-25T14:28:45.830Z,28.03
2022-07-25T14:31:12.520Z,28.02
2022-07-25T14:33:40.046Z,27.96
2022-07-25T14:36:09.659Z,27.94
2022-07-25T14:38:38.768Z,27.73
2022-07-25T14:41:12.570Z,27.61
2022-07-25T14:43:41.207Z,27.58
2022-07-25T14:46:08.901Z,27.57
2022-07-25T14:48:37.848Z,27.60
2022-07-25T14:51:05.772Z,27.50
2022-07-25T14:53:33.947Z,27.35
2022-07-25T14:56:03.079Z,27.24
2022-07-25T14:58:29.746Z,27.19
2022-07-25T15:00:56.333Z,27.18
2022-07-25T15:03:23.156Z,27.12
2022-07-25T15:05:49.696Z,27.11
2022-07-25T15:08:16.486Z,27.13
2022-07-25T15:10:43.255Z,27.31
2022-07-25T15:15:57.565Z,27.08
2022-07-25T15:18:24.246Z,27.01
2022-07-25T15:20:51.821Z,26.94
2022-07-25T15:23:18.562Z,26.98
2022-07-25T15:26:04.083Z,26.92
2022-07-25T15:28:37.906Z,26.85
2022-07-25T15:31:06.090Z,26.83
2022-07-25T15:33:33.374Z,26.66
2022-07-25T15:36:00.458Z,26.66
2022-07-25T15:38:28.894Z,26.61
2022-07-25T15:40:55.424Z,26.33
2022-07-25T15:43:21.973Z,26.29
2022-07-25T15:45:48.551Z,26.39
2022-07-25T15:48:17.384Z,26.44
2022-07-25T15:50:48.329Z,26.32
2022-07-25T15:53:15.624Z,26.34
2022-07-25T15:55:43.111Z,26.23
2022-07-25T15:58:11.519Z,26.34
2022-07-25T16:00:40.010Z,26.55
2022-07-25T16:03:07.782Z,26.70
2022-07-25T16:05:35.288Z,26.76
2022-07-25T16:08:02.928Z,26.69
2022-07-25T16:10:33.323Z,26.40
2022-07-25T16:13:01.004Z,26.28
2022-07-25T16:15:28.303Z,26.08
2022-07-25T16:18:00.150Z,25.92
2022-07-25T16:20:31.179Z,25.94
2022-07-25T16:22:59.004Z,26.11
2022-07-25T16:25:29.178Z,26.23
2022-07-25T16:27:58.387Z,26.29
2022-07-25T16:30:25.778Z,26.23
2022-07-25T16:32:52.465Z,26.25
2022-07-25T16:35:19.466Z,26.30
2022-07-25T16:37:46.169Z,26.12
2022-07-25T16:40:14.272Z,26.10
2022-07-25T16:42:40.907Z,26.02
2022-07-25T16:45:08.436Z,25.92
2022-07-25T16:47:35.188Z,25.84
2022-07-25T16:50:01.870Z,25.54
2022-07-25T16:52:28.442Z,25.45
2022-07-25T16:54:54.986Z,25.49
2022-07-25T16:57:23.759Z,25.53
2022-07-25T16:59:53.163Z,25.51
2022-07-25T17:02:20.022Z,25.45
2022-07-25T17:04:46.731Z,25.31
2022-07-25T17:07:13.433Z,25.09
2022-07-25T17:09:40.756Z,25.03
2022-07-25T17:12:07.556Z,24.93
2022-07-25T17:14:34.565Z,24.90
2022-07-25T17:17:01.128Z,25.02
2022-07-25T17:19:27.716Z,24.78
2022-07-25T17:21:54.261Z,24.64
2022-07-25T17:24:20.778Z,24.34
2022-07-25T17:26:47.378Z,24.32
2022-07-25T17:29:13.923Z,24.36
2022-07-25T17:31:40.620Z,24.45
2022-07-25T17:34:07.229Z,24.42
2022-07-25T17:36:34.129Z,24.43
2022-07-25T17:39:01.143Z,24.34
2022-07-25T17:41:27.674Z,24.38
2022-07-25T17:43:54.279Z,24.44
2022-07-25T17:46:20.924Z,24.46
2022-07-25T17:48:47.600Z,24.31
2022-07-25T17:51:14.190Z,24.27
2022-07-25T17:53:40.755Z,24.29
2022-07-25T17:56:08.637Z,24.31
2022-07-25T17:58:36.929Z,24.49
2022-07-25T18:01:08.369Z,24.70
2022-07-25T18:03:37.000Z,24.78
2022-07-25T18:06:04.942Z,24.55
2022-07-25T18:08:35.060Z,24.42
2022-07-25T18:11:03.434Z,24.34
2022-07-25T18:13:30.064Z,24.29
2022-07-25T18:15:56.867Z,24.26
2022-07-25T18:18:23.556Z,24.11
2022-07-25T18:20:50.101Z,23.98
2022-07-25T18:23:16.787Z,23.80
2022-07-25T18:25:46.632Z,23.66
2022-07-25T18:28:13.238Z,23.55
2022-07-25T18:30:39.899Z,23.39
2022-07-25T18:33:07.271Z,23.34
2022-07-25T18:35:33.891Z,23.33
2022-07-25T18:38:01.972Z,23.25
2022-07-25T18:40:29.107Z,23.23
2022-07-25T18:42:56.186Z,23.11
2022-07-25T18:45:23.455Z,22.96
2022-07-25T18:47:50.576Z,22.82
2022-07-25T18:50:19.790Z,22.82
2022-07-25T18:52:46.493Z,22.75
2022-07-25T18:55:13.043Z,22.71
2022-07-25T18:57:39.613Z,22.65
2022-07-25T19:00:09.513Z,22.66
2022-07-25T19:02:36.496Z,22.60
2022-07-25T19:05:03.478Z,22.55
2022-07-25T19:07:31.152Z,22.55
2022-07-25T19:09:57.770Z,22.46
2022-07-25T19:12:26.468Z,22.41
2022-07-25T19:14:54.789Z,22.36
2022-07-25T19:17:21.415Z,22.28
2022-07-25T19:19:48.069Z,22.22
2022-07-25T19:22:14.663Z,22.14
2022-07-25T19:24:41.177Z,22.15
2022-07-25T19:27:09.278Z,22.08
2022-07-25T19:29:37.471Z,22.01
2022-07-25T19:32:04.749Z,21.91
2022-07-25T19:34:31.335Z,21.74
2022-07-25T19:36:58.083Z,21.71
2022-07-25T19:39:24.752Z,21.69
2022-07-25T19:41:54.174Z,21.49
2022-07-25T19:44:20.911Z,21.32
2022-07-25T19:46:48.919Z,21.28
2022-07-25T19:49:15.810Z,21.24
2022-07-25T19:51:42.432Z,21.19
2022-07-25T19:54:09.721Z,21.15
2022-07-25T19:56:36.693Z,21.11
2022-07-25T19:59:03.828Z,20.91
2022-07-25T20:01:34.101Z,20.83
2022-07-25T20:04:01.890Z,20.81
2022-07-25T20:06:28.707Z,20.77
2022-07-25T20:08:55.242Z,20.77
2022-07-25T20:11:21.846Z,20.68
2022-07-25T20:13:48.385Z,20.61
2022-07-25T20:16:14.990Z,20.56
2022-07-25T20:18:41.589Z,20.54
2022-07-25T20:21:08.209Z,20.51
2022-07-25T20:23:34.806Z,20.43
2022-07-25T20:26:02.258Z,20.40
2022-07-25T20:28:29.028Z,20.37
2022-07-25T20:30:57.394Z,20.18
2022-07-25T20:33:26.890Z,19.92
2022-07-25T20:35:55.500Z,19.84
2022-07-25T20:38:22.798Z,19.74
2022-07-25T20:40:51.019Z,19.68
2022-07-25T20:43:18.585Z,19.60
2022-07-25T20:45:45.198Z,19.62
2022-07-25T20:48:14.580Z,19.60
2022-07-25T20:50:41.254Z,19.55
2022-07-25T20:53:08.613Z,19.53
2022-07-25T20:55:36.658Z,19.47
2022-07-25T20:58:04.599Z,19.45
2022-07-25T21:00:31.399Z,19.41
2022-07-25T21:02:59.821Z,19.35
2022-07-25T21:05:27.359Z,19.25
2022-07-25T21:07:54.685Z,19.18
2022-07-25T21:10:21.723Z,19.09
2022-07-25T21:12:48.790Z,19.03
2022-07-25T21:15:15.781Z,18.92
2022-07-25T21:17:42.364Z,18.78
2022-07-25T21:20:15.064Z,18.72
2022-07-25T21:22:43.295Z,18.65
2022-07-25T21:25:11.287Z,18.55
2022-07-25T21:27:39.675Z,18.47
2022-07-25T21:30:09.659Z,18.44
2022-07-25T21:32:36.309Z,18.45
2022-07-25T21:35:04.837Z,18.40
2022-07-25T21:37:31.369Z,18.27
2022-07-25T21:39:58.011Z,18.11
2022-07-25T21:42:24.571Z,18.02
2022-07-25T21:44:51.207Z,17.99
2022-07-25T21:47:17.900Z,17.89
2022-07-25T21:50:03.077Z,17.85
2022-07-25T21:52:34.775Z,17.94
2022-07-25T21:55:04.006Z,18.05
2022-07-25T21:57:31.624Z,18.19
2022-07-25T21:59:58.311Z,18.15
2022-07-25T22:02:25.394Z,18.15
2022-07-25T22:04:52.316Z,18.05
2022-07-25T22:07:19.023Z,17.94
2022-07-25T22:09:45.744Z,17.86
2022-07-25T22:12:12.405Z,17.87
2022-07-25T22:14:39.056Z,17.63
2022-07-25T22:17:05.691Z,17.33
2022-07-25T22:19:32.794Z,17.12
2022-07-25T22:21:59.521Z,17.15
2022-07-25T22:24:26.089Z,17.32
2022-07-25T22:26:52.788Z,17.40
2022-07-25T22:29:19.303Z,17.57
2022-07-25T22:31:45.914Z,17.55
2022-07-25T22:34:12.543Z,17.54
2022-07-25T22:36:39.194Z,17.64
2022-07-25T22:39:06.240Z,17.73
2022-07-25T22:41:35.618Z,17.67
2022-07-25T22:44:03.566Z,17.69
2022-07-25T22:46:31.925Z,17.76
2022-07-25T22:48:59.442Z,17.79
2022-07-25T22:51:27.679Z,17.86
2022-07-25T22:53:55.655Z,17.90
2022-07-25T22:56:22.559Z,17.94
2022-07-25T22:58:49.494Z,17.97
2022-07-25T23:01:18.576Z,17.95
2022-07-25T23:03:46.346Z,17.89
2022-07-25T23:06:13.036Z,17.83
2022-07-25T23:08:39.558Z,17.83
2022-07-25T23:11:06.415Z,17.76
2022-07-25T23:13:34.551Z,17.66
2022-07-25T23:16:03.256Z,17.64
2022-07-25T23:18:31.191Z,17.69
2022-07-25T23:20:57.854Z,17.73
2022-07-25T23:23:24.575Z,17.74
2022-07-25T23:25:51.562Z,17.70
2022-07-25T23:28:18.156Z,17.70
2022-07-25T23:30:44.719Z,17.69
2022-07-25T23:33:11.247Z,17.70
2022-07-25T23:35:37.797Z,17.72
2022-07-25T23:38:04.835Z,17.71
2022-07-25T23:40:31.450Z,17.74
2022-07-25T23:42:58.035Z,17.77
2022-07-25T23:45:24.953Z,17.76
2022-07-25T23:47:54.703Z,17.77
2022-07-25T23:50:22.101Z,17.79
2022-07-25T23:52:48.646Z,17.78
2022-07-25T23:55:15.267Z,17.79
2022-07-25T23:57:42.058Z,17.81
